Eureka, South Carolina
Current Conditions -  °F | °C
As of 11:15 AM on Thursday 30 Oct 2014 (Local Time) from KAIK Reporting Station
Clear Clear  
Wind Chill: 64°   Ceiling: Unl
Heat Index: 64°   Visibility: 10mi
Dew Point: 46°   Wind: 16mph
Humidity: 52%   Direction: 20°NNE
Pressure: 30.07"   Gusts: 21mph
Location:  33.7026°N, 81.856°W
Report Text: KAIK 301515Z AUTO 02014G18KT 10SM CLR 18/08 A3007 RMK AO2 PNO
Loading
Personal Weather Stations






























Interactive Weather Map
Tropical Storm Tracking
New forecast layout! Learn more

10-Day Weather Forecast

Advertisements
Track Severe Weather on mobile